Laurel, Delaware
Current Conditions -  °F | °C
As of 10:54 AM on Saturday 25 Oct 2014 (Local Time) from KGED Reporting Station
Clear Clear  
Wind Chill: 62°   Ceiling: Unl
Heat Index: 62°   Visibility: 10mi
Dew Point: 44°   Wind: 6mph
Humidity: 52%   Direction: 290°WNW
Pressure: 29.94"   Gusts: NA
Location:  38.56°N, 75.57°W
Report Text: KGED 251454Z AUTO 29005KT 10SM CLR 17/07 A2994 RMK AO2 SLP139 T01670067 58001 $
Loading
Personal Weather Stations






























Interactive Weather Map
Tropical Storm Tracking
New forecast layout! Learn more

10-Day Weather Forecast

Advertisements
Track Severe Weather on mobile